Time;durP1;ratioP1;P1;durP2;ratioP2;P2;SDS_P1;SDS_P2;PMS_P1;PMS_P2;Temp;Humidity;BMP_temperature;BMP_pressure;BME280_temperature;BME280_humidity;BME280_pressure;Samples;Min_cycle;Max_cycle;Signal;HPM_P1;HPM_P2
2023/09/04 00:00:02;;;;;;;3.17;2.13;;;15.30;99.90;;;;;;5020662;28;20042;-85
2023/09/04 00:02:28;;;;;;;5.40;2.03;;;15.20;99.90;;;;;;5016776;28;20065;-81
2023/09/04 00:04:54;;;;;;;2.47;1.67;;;15.10;99.90;;;;;;5003617;28;20018;-83
2023/09/04 00:07:20;;;;;;;1.70;1.60;;;15.00;99.90;;;;;;5006018;28;20029;-82
2023/09/04 00:09:46;;;;;;;2.33;2.17;;;15.00;99.90;;;;;;5007409;28;20250;-85
2023/09/04 00:12:11;;;;;;;2.30;1.63;;;15.00;99.90;;;;;;5005413;28;20026;-83
2023/09/04 00:14:37;;;;;;;1.90;1.80;;;14.90;99.90;;;;;;5004892;28;20279;-80
2023/09/04 00:17:03;;;;;;;2.47;2.20;;;15.00;99.90;;;;;;5003337;28;20092;-79
2023/09/04 00:19:28;;;;;;;2.40;1.95;;;14.90;99.90;;;;;;5000261;28;20027;-80
2023/09/04 00:21:54;;;;;;;1.85;1.75;;;14.90;99.90;;;;;;5005357;28;20018;-82
2023/09/04 00:24:20;;;;;;;2.15;2.00;;;14.90;99.90;;;;;;5003822;28;20038;-82
2023/09/04 00:26:46;;;;;;;4.18;2.95;;;14.90;99.90;;;;;;5004477;28;20064;-81
2023/09/04 00:29:11;;;;;;;1.88;1.77;;;14.90;99.90;;;;;;5003180;28;20022;-82
2023/09/04 00:31:37;;;;;;;4.90;2.05;;;14.90;99.90;;;;;;5003590;28;20034;-82
2023/09/04 00:34:03;;;;;;;4.47;2.40;;;14.90;99.90;;;;;;5004806;28;20015;-81
2023/09/04 00:36:28;;;;;;;1.83;1.70;;;14.80;99.90;;;;;;5002731;28;20105;-82
2023/09/04 00:38:54;;;;;;;2.92;2.00;;;14.80;99.90;;;;;;5004201;28;20111;-82
2023/09/04 00:41:20;;;;;;;2.58;2.20;;;14.80;99.90;;;;;;5018492;28;20034;-82
2023/09/04 00:43:46;;;;;;;4.88;2.38;;;14.70;99.90;;;;;;5001568;28;20090;-83
2023/09/04 00:46:12;;;;;;;3.55;2.13;;;14.70;99.90;;;;;;5000540;28;20202;-82
2023/09/04 00:48:39;;;;;;;2.60;2.40;;;14.60;99.90;;;;;;5003568;28;20018;-82
2023/09/04 00:51:06;;;;;;;5.45;2.47;;;14.50;99.90;;;;;;5002722;28;20341;-82
2023/09/04 00:53:34;;;;;;;4.50;2.53;;;14.60;99.90;;;;;;5001828;28;20210;-81
2023/09/04 00:56:02;;;;;;;3.42;3.13;;;14.60;99.90;;;;;;5003468;28;20037;-83
2023/09/04 00:58:27;;;;;;;4.43;2.83;;;14.50;99.90;;;;;;5001315;28;20375;-82
2023/09/04 01:00:54;;;;;;;4.35;2.53;;;14.50;99.90;;;;;;5001694;28;20029;-82
2023/09/04 01:03:20;;;;;;;5.20;3.35;;;14.50;99.90;;;;;;5002145;28;20379;-82
2023/09/04 01:05:46;;;;;;;5.95;3.13;;;14.50;99.90;;;;;;5002945;28;20062;-82
2023/09/04 01:08:13;;;;;;;2.58;2.35;;;14.40;99.90;;;;;;5003700;28;20034;-81
2023/09/04 01:10:48;;;;;;;4.18;2.63;;;14.40;99.90;;;;;;5004125;28;20026;-81
2023/09/04 01:13:29;;;;;;;3.05;2.70;;;14.40;99.90;;;;;;5013887;28;20089;-81
2023/09/04 01:15:56;;;;;;;2.70;2.33;;;14.30;99.90;;;;;;5001798;28;20394;-82
2023/09/04 01:18:23;;;;;;;3.00;2.67;;;14.30;99.90;;;;;;5002659;28;20041;-81
2023/09/04 01:21:05;;;;;;;3.10;2.80;;;14.30;99.90;;;;;;5002415;28;20089;-81
2023/09/04 01:23:32;;;;;;;3.72;2.88;;;14.40;99.90;;;;;;5005088;28;20318;-82
2023/09/04 01:26:19;;;;;;;2.85;2.47;;;14.40;99.90;;;;;;5007618;28;20274;-81
2023/09/04 01:28:53;;;;;;;3.25;3.03;;;14.50;99.90;;;;;;5002776;28;20018;-82
2023/09/04 01:31:43;;;;;;;6.60;4.03;;;14.40;99.90;;;;;;5007481;28;20057;-81
2023/09/04 01:34:14;;;;;;;2.83;2.50;;;14.40;99.90;;;;;;5010273;28;20113;-80
2023/09/04 01:36:41;;;;;;;4.38;3.95;;;14.40;99.90;;;;;;5004122;28;20049;-81
2023/09/04 01:39:07;;;;;;;6.10;3.78;;;14.40;99.90;;;;;;5002131;28;20033;-82
2023/09/04 01:41:32;;;;;;;5.25;3.90;;;14.40;99.90;;;;;;5001521;28;20022;-82
2023/09/04 01:43:58;;;;;;;4.75;3.67;;;14.40;99.90;;;;;;5002597;28;20030;-81
2023/09/04 01:46:24;;;;;;;5.22;3.92;;;14.40;99.90;;;;;;5015606;28;20386;-81
2023/09/04 01:48:50;;;;;;;6.28;3.63;;;14.30;99.90;;;;;;5002886;28;20081;-80
2023/09/04 01:51:16;;;;;;;5.28;3.30;;;14.30;99.90;;;;;;5002222;28;20030;-81
2023/09/04 01:53:42;;;;;;;5.70;3.85;;;14.20;99.90;;;;;;5002838;28;20022;-81
2023/09/04 01:56:08;;;;;;;5.85;4.60;;;14.20;99.90;;;;;;5020196;28;20026;-80
2023/09/04 01:58:34;;;;;;;6.13;4.82;;;14.30;99.90;;;;;;5010263;28;20452;-80
2023/09/04 02:00:59;;;;;;;5.53;4.13;;;14.40;99.90;;;;;;5007521;28;20053;-80
2023/09/04 02:03:25;;;;;;;5.72;4.13;;;14.30;99.90;;;;;;5005523;28;20027;-81
2023/09/04 02:05:51;;;;;;;5.70;4.22;;;14.30;99.90;;;;;;5002666;28;20090;-81
2023/09/04 02:08:16;;;;;;;7.70;3.47;;;14.30;99.90;;;;;;5002581;28;20045;-80
2023/09/04 02:10:42;;;;;;;16.85;5.13;;;14.30;99.90;;;;;;5003656;28;20033;-80
2023/09/04 02:13:08;;;;;;;10.75;5.90;;;14.20;99.90;;;;;;5002158;28;20030;-79
2023/09/04 02:15:36;;;;;;;4.38;3.92;;;14.30;99.90;;;;;;5007119;28;20058;-81
2023/09/04 02:18:02;;;;;;;5.47;4.30;;;14.30;99.90;;;;;;5006993;28;20461;-81
2023/09/04 02:20:29;;;;;;;5.60;4.57;;;14.30;99.90;;;;;;5004237;28;20125;-80
2023/09/04 02:22:55;;;;;;;5.97;3.78;;;14.10;99.90;;;;;;5017876;28;20026;-80
2023/09/04 02:25:21;;;;;;;6.10;4.22;;;14.10;99.90;;;;;;5001522;28;20058;-81
2023/09/04 02:27:47;;;;;;;5.57;4.38;;;14.10;99.90;;;;;;5002967;28;20030;-81
2023/09/04 02:30:13;;;;;;;6.75;4.55;;;14.10;99.90;;;;;;5002808;28;20027;-80
2023/09/04 02:32:39;;;;;;;6.45;4.35;;;14.00;99.90;;;;;;5004004;28;20476;-81
2023/09/04 02:35:05;;;;;;;6.28;4.97;;;14.10;99.90;;;;;;5001140;28;20018;-81
2023/09/04 02:37:31;;;;;;;7.80;4.38;;;14.00;99.90;;;;;;5002408;28;20022;-81
2023/09/04 02:39:56;;;;;;;6.18;4.57;;;14.00;99.90;;;;;;4998333;28;20094;-81
2023/09/04 02:42:22;;;;;;;7.93;4.93;;;13.90;99.90;;;;;;4999133;28;20034;-81
2023/09/04 02:44:48;;;;;;;9.23;5.22;;;13.80;99.90;;;;;;5003833;28;20200;-81
2023/09/04 02:47:13;;;;;;;5.72;4.25;;;13.80;99.90;;;;;;5000987;28;20042;-81
2023/09/04 02:49:39;;;;;;;7.30;5.60;;;13.70;99.90;;;;;;5005467;28;20018;-81
2023/09/04 02:52:05;;;;;;;6.95;4.70;;;13.70;99.90;;;;;;5013206;28;20023;-80
2023/09/04 02:54:30;;;;;;;9.35;4.93;;;13.70;99.90;;;;;;5005438;28;20022;-80
2023/09/04 02:56:57;;;;;;;6.78;4.30;;;13.80;99.90;;;;;;5022858;28;20030;-81
2023/09/04 02:59:25;;;;;;;5.93;4.47;;;13.70;99.90;;;;;;5001797;28;20026;-81
2023/09/04 03:01:50;;;;;;;8.80;5.78;;;13.60;99.90;;;;;;5003462;28;20037;-80
2023/09/04 03:04:16;;;;;;;9.82;6.18;;;13.70;99.90;;;;;;5003603;28;20042;-79
2023/09/04 03:06:42;;;;;;;8.10;5.15;;;13.80;99.90;;;;;;5003482;28;20061;-80
2023/09/04 03:09:08;;;;;;;9.68;5.78;;;13.80;99.90;;;;;;5007972;28;20022;-80
2023/09/04 03:11:36;;;;;;;10.70;6.43;;;13.80;99.90;;;;;;5007586;28;20030;-79
2023/09/04 03:14:02;;;;;;;13.00;7.70;;;13.80;99.90;;;;;;5008582;28;20030;-81
2023/09/04 03:16:28;;;;;;;14.75;8.63;;;14.00;99.90;;;;;;5007181;28;20631;-81
2023/09/04 03:18:54;;;;;;;9.50;6.60;;;14.00;99.90;;;;;;5006207;28;20176;-80
2023/09/04 03:21:20;;;;;;;9.30;6.07;;;13.90;99.90;;;;;;5002518;28;20034;-80
2023/09/04 03:23:49;;;;;;;8.48;6.07;;;13.80;99.90;;;;;;4999602;28;20194;-81
2023/09/04 03:26:15;;;;;;;8.70;5.40;;;13.70;99.90;;;;;;5003678;28;20038;-79
2023/09/04 03:28:41;;;;;;;13.20;7.55;;;13.70;99.90;;;;;;5005861;28;20074;-80
2023/09/04 03:31:13;;;;;;;13.63;7.18;;;13.60;99.90;;;;;;5005877;28;20058;-80
2023/09/04 03:33:43;;;;;;;10.13;6.75;;;13.60;99.90;;;;;;5014055;28;20006;-80
2023/09/04 03:36:12;;;;;;;13.93;6.13;;;13.70;99.90;;;;;;5029113;28;20023;-80
2023/09/04 03:38:39;;;;;;;14.32;7.22;;;13.70;99.90;;;;;;5012723;28;20045;-81
2023/09/04 03:41:05;;;;;;;9.02;6.13;;;13.70;99.90;;;;;;5010051;28;20307;-81
2023/09/04 03:43:31;;;;;;;16.50;8.60;;;13.60;99.90;;;;;;5009592;28;20037;-81
2023/09/04 03:45:58;;;;;;;14.63;7.55;;;13.60;99.90;;;;;;5032891;28;20050;-81
2023/09/04 03:48:25;;;;;;;14.77;7.70;;;13.80;99.90;;;;;;5017645;28;20023;-80
2023/09/04 03:50:51;;;;;;;13.45;7.43;;;13.90;99.90;;;;;;5018819;28;20034;-81
2023/09/04 03:53:17;;;;;;;14.13;7.97;;;13.90;99.90;;;;;;5013092;28;20113;-80
2023/09/04 03:55:43;;;;;;;15.65;8.70;;;13.80;99.90;;;;;;5009344;28;20027;-81
2023/09/04 03:58:08;;;;;;;15.05;9.43;;;13.90;99.90;;;;;;5013539;28;20034;-80
2023/09/04 04:00:35;;;;;;;13.23;7.28;;;13.90;99.90;;;;;;5015419;28;20093;-80
2023/09/04 04:03:01;;;;;;;11.32;7.70;;;14.00;99.90;;;;;;5005296;28;20097;-82
2023/09/04 04:05:28;;;;;;;14.25;7.72;;;13.90;99.90;;;;;;5001733;28;20054;-82
2023/09/04 04:07:55;;;;;;;15.45;8.57;;;13.80;99.90;;;;;;5010114;28;20037;-83
2023/09/04 04:57:06;;;;;;;15.20;8.18;;;13.40;99.90;;;;;;5001556;28;20037;-82
2023/09/04 04:59:52;;;;;;;10.38;6.45;;;13.30;99.90;;;;;;4999418;28;20031;-81
2023/09/04 05:02:21;;;;;;;10.55;7.72;;;13.30;99.90;;;;;;4983547;28;20007;-81
2023/09/04 05:25:28;;;;;;;11.00;6.30;;;11.30;99.90;;;;;;5016793;28;20041;-82
2023/09/04 05:27:55;;;;;;;15.32;7.60;;;11.60;99.90;;;;;;5010641;28;20042;-80
2023/09/04 05:30:20;;;;;;;11.93;7.45;;;13.70;99.90;;;;;;4986834;28;20030;-81
2023/09/04 05:32:46;;;;;;;13.77;7.38;;;13.80;99.90;;;;;;4994232;28;20029;-80
2023/09/04 05:35:12;;;;;;;9.70;6.13;;;13.90;99.90;;;;;;4982489;28;20093;-81
2023/09/04 05:37:37;;;;;;;15.85;8.13;;;14.00;99.90;;;;;;4995554;28;20089;-81
2023/09/04 05:40:04;;;;;;;10.43;6.10;;;14.00;99.90;;;;;;5004042;28;20030;-80
2023/09/04 05:42:30;;;;;;;11.35;7.45;;;14.20;99.90;;;;;;4986891;28;20030;-81
2023/09/04 05:44:56;;;;;;;10.13;7.13;;;14.30;99.90;;;;;;4990169;28;20030;-80
2023/09/04 05:47:21;;;;;;;15.32;8.13;;;14.40;99.90;;;;;;4989440;28;20133;-80
2023/09/04 05:49:47;;;;;;;11.05;7.40;;;14.50;99.90;;;;;;4993544;28;20090;-81
2023/09/04 05:52:13;;;;;;;11.85;7.47;;;14.70;99.90;;;;;;4993440;28;20034;-80
2023/09/04 05:54:39;;;;;;;11.85;7.45;;;14.90;99.90;;;;;;4994454;28;20022;-81
2023/09/04 05:57:04;;;;;;;29.92;7.10;;;15.00;99.90;;;;;;4993738;28;20094;-82
2023/09/04 05:59:30;;;;;;;13.68;7.28;;;15.10;99.90;;;;;;4996614;28;20034;-81
2023/09/04 06:01:56;;;;;;;12.20;6.35;;;15.10;99.90;;;;;;4977084;28;20109;-82
2023/09/04 06:04:22;;;;;;;12.80;6.55;;;15.30;99.90;;;;;;4978844;28;20076;-81
2023/09/04 06:06:47;;;;;;;10.90;6.55;;;15.30;99.90;;;;;;4996932;28;20062;-82
2023/09/04 06:09:14;;;;;;;9.77;6.63;;;15.40;99.90;;;;;;5014950;28;20027;-82
2023/09/04 06:11:40;;;;;;;8.32;6.22;;;15.30;99.90;;;;;;5007659;28;20275;-82
2023/09/04 06:14:05;;;;;;;9.57;8.20;;;15.40;99.90;;;;;;4992210;28;20262;-82
2023/09/04 06:16:37;;;;;;;11.75;6.93;;;15.50;99.90;;;;;;5008229;28;20030;-81
2023/09/04 06:19:04;;;;;;;10.18;6.07;;;15.60;99.90;;;;;;5000973;28;20081;-81
2023/09/04 06:21:30;;;;;;;16.83;7.03;;;15.70;99.90;;;;;;4998309;28;20034;-82
2023/09/04 06:23:56;;;;;;;10.90;6.40;;;15.80;99.90;;;;;;5001123;28;20094;-82
2023/09/04 06:26:21;;;;;;;13.15;8.00;;;15.80;99.90;;;;;;4996329;28;20045;-81
2023/09/04 06:28:48;;;;;;;9.52;6.30;;;15.80;99.90;;;;;;5013417;28;20033;-81
2023/09/04 06:31:14;;;;;;;9.73;5.57;;;15.90;99.90;;;;;;5000212;28;20014;-82
2023/09/04 06:33:40;;;;;;;9.55;6.50;;;15.90;99.90;;;;;;4993228;28;20034;-82
2023/09/04 06:36:05;;;;;;;10.32;6.90;;;15.80;99.90;;;;;;4974527;28;20048;-82
2023/09/04 06:38:31;;;;;;;10.10;6.60;;;15.80;99.90;;;;;;4984423;28;20027;-81
2023/09/04 06:40:59;;;;;;;12.40;6.43;;;15.90;99.90;;;;;;4973146;28;20126;-82
2023/09/04 06:43:27;;;;;;;9.75;6.25;;;16.00;99.90;;;;;;4974606;28;20026;-83
2023/09/04 06:45:53;;;;;;;11.40;6.53;;;15.90;99.90;;;;;;4997955;28;20034;-82
2023/09/04 06:48:18;;;;;;;11.50;6.45;;;15.90;99.90;;;;;;4975412;28;20491;-82
2023/09/04 06:50:49;;;;;;;9.70;5.88;;;16.00;99.90;;;;;;4972695;28;20138;-82
2023/09/04 06:53:16;;;;;;;10.02;6.45;;;16.00;99.90;;;;;;4989943;28;20022;-82
2023/09/04 06:55:47;;;;;;;9.15;6.18;;;16.10;99.90;;;;;;5014267;28;20479;-82
2023/09/04 06:58:15;;;;;;;9.25;6.22;;;16.20;99.90;;;;;;4994101;28;20117;-81
2023/09/04 07:00:41;;;;;;;13.60;6.90;;;16.30;99.90;;;;;;4996073;28;20045;-82
2023/09/04 07:03:07;;;;;;;11.77;6.35;;;16.40;99.90;;;;;;4997134;28;20030;-78
2023/09/04 07:05:32;;;;;;;9.40;6.10;;;16.50;99.90;;;;;;4992738;28;20093;-75
2023/09/04 07:07:58;;;;;;;8.77;5.72;;;16.60;99.90;;;;;;4990944;28;20104;-74
2023/09/04 07:10:24;;;;;;;8.25;5.50;;;16.80;99.90;;;;;;4973888;28;20117;-74
2023/09/04 07:12:52;;;;;;;9.88;5.40;;;16.80;99.90;;;;;;4990220;28;20022;-78
2023/09/04 07:15:18;;;;;;;9.88;5.28;;;17.00;99.90;;;;;;4990332;28;20644;-79
2023/09/04 07:17:44;;;;;;;8.65;5.22;;;17.10;99.90;;;;;;4989799;28;20309;-79
2023/09/04 07:20:12;;;;;;;8.90;5.60;;;17.20;99.90;;;;;;4972678;28;20018;-88
2023/09/04 07:22:38;;;;;;;7.20;4.45;;;17.30;99.90;;;;;;4975930;28;20445;-82
2023/09/04 07:25:05;;;;;;;10.05;5.28;;;17.50;99.90;;;;;;4977161;28;20023;-82
2023/09/04 07:27:31;;;;;;;5.85;4.72;;;17.50;99.90;;;;;;4973332;28;20030;-83
2023/09/04 07:29:58;;;;;;;6.57;5.47;;;17.70;99.90;;;;;;4976308;28;20023;-81
2023/09/04 07:32:25;;;;;;;7.15;4.35;;;17.70;99.90;;;;;;4972754;28;20116;-80
2023/09/04 07:34:56;;;;;;;11.02;6.35;;;17.80;99.90;;;;;;4974105;28;20022;-85
2023/09/04 07:37:28;;;;;;;8.13;5.20;;;17.90;99.90;;;;;;4975568;28;20030;-79
2023/09/04 07:40:02;;;;;;;;;;;17.90;99.90;;;;;;5002782;28;20070;-84
2023/09/04 07:42:28;;;;;;;9.15;6.28;;;18.10;99.90;;;;;;4975423;28;19921;-86
2023/09/04 07:45:32;;;;;;;8.60;5.70;;;18.10;99.90;;;;;;4997867;28;20042;-84
2023/09/04 07:48:13;;;;;;;10.30;7.47;;;18.10;99.90;;;;;;5015333;28;20053;-81
2023/09/04 07:50:41;;;;;;;7.82;5.57;;;18.10;99.90;;;;;;4997806;28;20030;-79
2023/09/04 07:53:07;;;;;;;9.25;5.55;;;18.20;99.90;;;;;;5011183;28;20155;-79
2023/09/04 07:55:33;;;;;;;9.73;5.93;;;18.40;99.90;;;;;;4977127;28;20083;-87
2023/09/04 07:57:58;;;;;;;9.63;5.00;;;18.50;99.90;;;;;;4971964;28;20111;-89
2023/09/04 08:00:24;;;;;;;8.88;5.25;;;18.70;99.90;;;;;;4988747;28;20022;-87
2023/09/04 08:02:50;;;;;;;9.68;5.30;;;18.80;99.90;;;;;;4980112;28;20027;-85
2023/09/04 08:05:15;;;;;;;11.15;6.07;;;18.90;99.90;;;;;;4959175;28;20529;-85
2023/09/04 08:07:41;;;;;;;9.98;4.68;;;18.90;99.90;;;;;;4955484;28;20075;-82
2023/09/04 08:10:07;;;;;;;8.07;5.30;;;18.90;99.90;;;;;;4958514;28;20401;-88
2023/09/04 08:12:33;;;;;;;6.82;4.95;;;19.00;99.90;;;;;;4983580;28;20331;-83
2023/09/04 08:15:10;;;;;;;8.13;4.97;;;19.00;99.90;;;;;;4969785;28;20046;-82
2023/09/04 08:17:37;;;;;;;7.88;5.38;;;19.30;99.90;;;;;;4982849;28;20033;-83
2023/09/04 08:20:03;;;;;;;6.15;4.53;;;19.50;99.90;;;;;;4994661;28;20208;-82
2023/09/04 08:22:29;;;;;;;9.40;4.55;;;20.00;99.90;;;;;;4996725;28;20062;-80
2023/09/04 08:24:54;;;;;;;12.98;5.50;;;20.40;99.90;;;;;;4978387;28;20446;-78
2023/09/04 08:27:20;;;;;;;7.43;4.55;;;21.00;99.90;;;;;;4979629;28;20045;-81
2023/09/04 08:29:46;;;;;;;6.72;4.25;;;21.60;99.90;;;;;;4993703;28;20468;-81
2023/09/04 08:32:11;;;;;;;5.57;3.70;;;22.40;99.90;;;;;;4975069;28;20030;-81
2023/09/04 08:34:37;;;;;;;4.82;3.78;;;23.60;99.90;;;;;;4975540;28;20026;-81
2023/09/04 08:37:03;;;;;;;5.00;3.38;;;24.40;99.90;;;;;;4993053;28;20043;-81
2023/09/04 08:39:29;;;;;;;6.95;3.67;;;24.90;99.90;;;;;;4975532;28;20034;-81
2023/09/04 08:41:55;;;;;;;4.05;3.63;;;24.60;99.90;;;;;;4975825;28;20027;-81
2023/09/04 08:44:21;;;;;;;6.30;3.10;;;24.40;99.90;;;;;;4975944;28;20022;-80
2023/09/04 08:46:49;;;;;;;4.60;3.03;;;24.90;99.90;;;;;;4975548;28;20035;-80
2023/09/04 08:49:18;;;;;;;2.75;2.17;;;25.10;99.90;;;;;;4992838;28;20063;-81
2023/09/04 08:51:45;;;;;;;3.33;2.92;;;24.80;99.90;;;;;;4975442;28;20034;-81
2023/09/04 08:54:11;;;;;;;2.58;2.33;;;25.10;99.90;;;;;;4992726;28;20113;-81
2023/09/04 08:56:38;;;;;;;3.92;3.03;;;25.00;99.90;;;;;;4975153;28;20185;-80
2023/09/04 08:59:04;;;;;;;7.53;3.00;;;25.00;99.90;;;;;;4975248;28;20391;-80
2023/09/04 09:01:33;;;;;;;8.05;4.07;;;25.40;99.80;;;;;;4992751;28;20033;-81
2023/09/04 09:04:00;;;;;;;2.40;1.92;;;25.20;99.70;;;;;;4975118;28;20486;-84
2023/09/04 09:06:27;;;;;;;2.08;1.90;;;25.20;98.80;;;;;;4978518;28;20038;-87
2023/09/04 09:08:56;;;;;;;5.03;2.30;;;24.90;99.60;;;;;;4976431;28;20142;-84
2023/09/04 09:11:22;;;;;;;;;;;25.00;99.90;;;;;;4976894;28;20557;-83
2023/09/04 09:13:47;;;;;;;7.85;2.35;;;25.40;99.10;;;;;;4992790;28;19918;-79
2023/09/04 09:16:20;;;;;;;2.47;2.28;;;25.60;98.30;;;;;;4976333;28;20056;-84
2023/09/04 09:18:47;;;;;;;3.50;2.03;;;25.80;98.00;;;;;;4975613;28;20022;-81
2023/09/04 09:21:30;;;;;;;3.10;2.20;;;26.10;97.30;;;;;;4993394;28;20475;-82
2023/09/04 09:24:19;;;;;;;1.85;1.27;;;26.40;97.20;;;;;;4993073;28;20029;-81
2023/09/04 09:26:47;;;;;;;3.78;1.48;;;26.40;96.80;;;;;;4975258;28;20069;-80
2023/09/04 09:29:14;;;;;;;2.30;2.15;;;26.30;95.60;;;;;;4975065;28;20117;-80
2023/09/04 09:31:42;;;;;;;2.28;1.45;;;26.40;95.00;;;;;;4975036;28;20034;-83
2023/09/04 09:34:09;;;;;;;1.10;1.00;;;26.40;94.70;;;;;;4974017;28;20418;-81
2023/09/04 09:36:35;;;;;;;0.80;0.80;;;26.10;94.20;;;;;;4991872;28;20027;-80
2023/09/04 09:39:02;;;;;;;1.77;0.90;;;26.30;93.00;;;;;;4992461;28;20022;-81
2023/09/04 09:41:29;;;;;;;1.05;0.80;;;26.60;93.40;;;;;;4992530;28;20026;-82
2023/09/04 09:43:54;;;;;;;0.73;0.60;;;26.60;93.20;;;;;;4975022;28;20031;-81
2023/09/04 09:46:20;;;;;;;0.98;0.98;;;26.60;92.40;;;;;;4992103;28;20038;-82
2023/09/04 09:48:47;;;;;;;0.95;0.95;;;26.60;93.00;;;;;;4992080;28;20025;-82
2023/09/04 09:51:13;;;;;;;0.90;0.90;;;26.70;92.10;;;;;;4974496;28;20034;-82
2023/09/04 09:53:47;;;;;;;1.60;1.17;;;26.70;91.40;;;;;;4974601;28;20026;-82
2023/09/04 09:56:13;;;;;;;1.83;0.90;;;26.60;92.40;;;;;;4974903;28;20030;-82
2023/09/04 09:58:45;;;;;;;1.00;0.90;;;26.80;91.20;;;;;;4992237;28;20046;-84
2023/09/04 10:01:12;;;;;;;0.90;0.90;;;27.00;91.20;;;;;;4992285;28;20077;-82
2023/09/04 10:03:38;;;;;;;2.03;0.90;;;27.10;90.70;;;;;;4974688;28;20117;-82
2023/09/04 10:06:06;;;;;;;1.63;0.93;;;27.00;90.40;;;;;;4974211;28;20125;-82
2023/09/04 10:08:37;;;;;;;1.40;1.05;;;27.10;90.40;;;;;;4992581;28;20042;-82
2023/09/04 10:11:09;;;;;;;2.63;1.10;;;27.20;88.90;;;;;;4975619;28;20038;-82
2023/09/04 10:13:41;;;;;;;1.10;1.05;;;27.30;86.90;;;;;;4991686;28;20050;-81
2023/09/04 10:16:13;;;;;;;1.50;0.82;;;27.40;85.60;;;;;;4974444;28;20033;-82
2023/09/04 10:18:40;;;;;;;2.65;0.95;;;27.50;85.00;;;;;;4975061;28;20130;-81
2023/09/04 10:21:12;;;;;;;1.20;1.10;;;27.60;87.10;;;;;;4974112;28;20159;-83
2023/09/04 10:23:48;;;;;;;0.80;0.80;;;27.50;86.10;;;;;;4974653;28;20278;-81
2023/09/04 10:26:28;;;;;;;3.38;0.98;;;27.80;85.00;;;;;;4991522;28;20074;-82
2023/09/04 10:29:08;;;;;;;1.42;1.33;;;28.00;85.30;;;;;;4990842;28;20018;-80
2023/09/04 10:31:35;;;;;;;1.30;1.20;;;28.20;84.80;;;;;;4973836;28;20030;-84
2023/09/04 10:34:01;;;;;;;2.83;1.05;;;28.10;82.70;;;;;;4974241;28;20117;-83
2023/09/04 10:36:31;;;;;;;0.98;0.75;;;27.90;81.80;;;;;;4973846;28;20061;-82
2023/09/04 10:39:01;;;;;;;1.95;0.73;;;28.10;80.90;;;;;;4991603;28;20026;-82
2023/09/04 10:41:29;;;;;;;1.13;0.98;;;28.40;78.80;;;;;;4973887;28;20026;-83
2023/09/04 10:43:55;;;;;;;1.55;0.80;;;28.60;78.60;;;;;;4973720;28;20026;-81
2023/09/04 10:46:21;;;;;;;2.90;0.90;;;29.00;76.70;;;;;;4973251;28;20038;-81
2023/09/04 10:48:49;;;;;;;2.15;1.00;;;29.30;77.00;;;;;;4973475;28;20368;-81
2023/09/04 10:51:29;;;;;;;1.77;1.00;;;29.50;76.50;;;;;;4973581;28;20039;-81
2023/09/04 10:53:56;;;;;;;1.52;1.05;;;29.60;72.80;;;;;;4990928;28;20080;-81
2023/09/04 10:56:22;;;;;;;1.70;1.08;;;29.80;72.50;;;;;;4991197;28;20030;-81
2023/09/04 10:59:04;;;;;;;0.95;0.82;;;30.00;71.00;;;;;;4973664;28;20026;-82
2023/09/04 11:01:39;;;;;;;1.40;1.00;;;30.30;68.20;;;;;;4973624;28;20041;-76
2023/09/04 11:04:07;;;;;;;0.90;0.90;;;30.20;68.30;;;;;;4991158;28;20033;-85
2023/09/04 11:06:35;;;;;;;1.83;1.20;;;30.60;67.00;;;;;;4973618;28;20188;-82
2023/09/04 11:09:02;;;;;;;1.83;1.17;;;30.80;67.80;;;;;;4998096;28;20026;-82
2023/09/04 11:11:28;;;;;;;1.10;0.88;;;30.80;66.70;;;;;;4982763;28;20097;-82
2023/09/04 11:14:02;;;;;;;0.80;0.80;;;30.80;66.20;;;;;;4970718;28;20074;-80
2023/09/04 11:16:50;;;;;;;0.88;0.80;;;30.90;65.50;;;;;;4971621;28;20464;-82
2023/09/04 11:19:16;;;;;;;1.08;0.98;;;30.90;64.30;;;;;;4971908;28;20022;-82
2023/09/04 11:21:45;;;;;;;1.75;0.60;;;30.90;65.20;;;;;;4971868;28;20064;-82
2023/09/04 11:24:10;;;;;;;1.23;1.13;;;31.10;64.30;;;;;;4971428;28;20022;-80
2023/09/04 11:26:36;;;;;;;6.40;1.60;;;31.50;63.00;;;;;;4971948;28;20048;-82
2023/09/04 11:29:04;;;;;;;1.00;0.90;;;31.50;63.50;;;;;;4989366;28;20345;-79
2023/09/04 11:31:31;;;;;;;2.17;1.00;;;31.70;61.70;;;;;;4973859;28;20030;-82
2023/09/04 11:33:57;;;;;;;2.55;0.98;;;31.50;62.50;;;;;;4990687;28;20273;-83
2023/09/04 11:36:24;;;;;;;2.63;1.08;;;31.40;62.40;;;;;;4973288;28;20037;-80
2023/09/04 11:39:01;;;;;;;1.75;0.88;;;31.50;62.30;;;;;;4990697;28;20027;-81
2023/09/04 11:41:27;;;;;;;1.17;1.08;;;31.70;61.70;;;;;;4972997;28;20064;-81
2023/09/04 11:43:52;;;;;;;0.77;0.77;;;31.70;61.70;;;;;;4972883;28;20058;-81
2023/09/04 11:46:18;;;;;;;0.68;0.68;;;31.70;60.60;;;;;;4973147;28;20042;-82
2023/09/04 11:48:44;;;;;;;2.35;1.23;;;32.10;60.70;;;;;;4990362;28;20422;-79
2023/09/04 11:51:11;;;;;;;1.25;0.82;;;32.70;59.80;;;;;;4990158;28;20031;-78
2023/09/04 11:53:37;;;;;;;9.07;2.33;;;33.10;60.30;;;;;;4990632;28;20101;-80
2023/09/04 11:56:03;;;;;;;0.98;0.82;;;33.10;60.40;;;;;;4972675;28;20026;-78
2023/09/04 11:58:29;;;;;;;0.80;0.80;;;33.40;59.00;;;;;;4974160;28;20018;-80
2023/09/04 12:00:56;;;;;;;0.98;0.82;;;34.00;59.70;;;;;;4976769;28;20034;-78
2023/09/04 12:03:22;;;;;;;2.42;1.00;;;34.30;58.30;;;;;;4976531;28;20486;-80
2023/09/04 12:05:51;;;;;;;1.65;0.55;;;34.40;56.40;;;;;;4976600;28;20034;-80
2023/09/04 12:08:17;;;;;;;2.53;0.85;;;34.50;56.20;;;;;;4976952;28;20022;-79
2023/09/04 12:10:43;;;;;;;0.98;0.98;;;34.30;56.70;;;;;;4994351;28;20051;-78
2023/09/04 12:13:09;;;;;;;1.00;1.00;;;34.30;56.70;;;;;;4976550;28;20170;-79
2023/09/04 12:15:34;;;;;;;0.90;0.80;;;34.60;57.00;;;;;;4993885;28;20214;-79
2023/09/04 12:18:05;;;;;;;0.90;0.70;;;34.80;56.20;;;;;;4976017;28;20175;-78
2023/09/04 12:20:36;;;;;;;1.80;1.08;;;34.80;56.40;;;;;;4975778;28;20440;-77
2023/09/04 12:23:02;;;;;;;3.90;1.00;;;35.20;57.30;;;;;;4975915;28;20018;-76
2023/09/04 12:25:36;;;;;;;1.00;1.00;;;35.10;54.60;;;;;;4993270;28;20022;-77
2023/09/04 12:28:03;;;;;;;1.17;1.08;;;35.20;55.30;;;;;;4975803;28;20029;-76
2023/09/04 12:30:29;;;;;;;0.60;0.60;;;35.30;55.20;;;;;;4992794;28;20018;-77
2023/09/04 12:32:58;;;;;;;1.40;0.77;;;35.40;55.70;;;;;;4992999;28;20034;-78
2023/09/04 12:35:23;;;;;;;;;;;35.80;54.10;;;;;;4992899;28;20033;-76
2023/09/04 12:37:53;;;;;;;2.60;0.70;;;36.10;53.20;;;;;;4975574;28;19906;-77
2023/09/04 12:40:19;;;;;;;3.33;0.70;;;36.00;53.30;;;;;;4993512;28;20026;-79
2023/09/04 12:42:45;;;;;;;4.35;0.85;;;36.30;54.10;;;;;;4976032;28;20623;-78
2023/09/04 12:45:10;;;;;;;2.60;0.90;;;36.10;53.30;;;;;;4975771;28;20026;-79
2023/09/04 12:47:36;;;;;;;1.42;1.30;;;36.30;54.40;;;;;;4976086;28;20117;-80
2023/09/04 12:50:04;;;;;;;0.70;0.70;;;36.80;54.30;;;;;;4992991;28;20053;-78
2023/09/04 12:52:30;;;;;;;0.98;0.82;;;37.20;53.80;;;;;;4993042;28;20082;-80
2023/09/04 12:54:56;;;;;;;0.77;0.70;;;37.50;52.30;;;;;;4976077;28;20546;-81
2023/09/04 12:57:22;;;;;;;3.75;0.70;;;38.00;51.00;;;;;;4975992;28;20076;-81
2023/09/04 12:59:47;;;;;;;0.85;0.50;;;37.70;51.80;;;;;;4976340;28;20037;-81
2023/09/04 13:02:13;;;;;;;4.45;0.75;;;37.70;52.50;;;;;;4976649;28;20084;-73
2023/09/04 13:04:39;;;;;;;1.00;1.00;;;37.30;52.00;;;;;;4991558;28;20471;-79
2023/09/04 13:07:05;;;;;;;0.88;0.70;;;37.50;51.90;;;;;;4975141;28;20092;-79
2023/09/04 13:09:30;;;;;;;2.25;0.63;;;37.60;52.70;;;;;;4991974;28;20113;-80
2023/09/04 13:11:59;;;;;;;0.65;0.65;;;37.80;52.50;;;;;;4992127;28;20502;-79
2023/09/04 13:14:25;;;;;;;0.93;0.90;;;38.00;50.80;;;;;;4992525;28;20065;-81
2023/09/04 13:16:51;;;;;;;2.92;0.82;;;38.10;51.60;;;;;;4974986;28;20030;-79
2023/09/04 13:19:16;;;;;;;0.98;0.95;;;37.80;50.00;;;;;;4975597;28;20037;-80
2023/09/04 13:21:43;;;;;;;1.35;1.02;;;37.30;52.70;;;;;;4974876;28;20030;-79
2023/09/04 13:24:08;;;;;;;0.68;0.60;;;37.50;51.30;;;;;;4975022;28;20026;-79
2023/09/04 13:26:34;;;;;;;1.05;0.95;;;37.80;50.50;;;;;;4975261;28;20125;-82
2023/09/04 13:29:00;;;;;;;1.25;1.00;;;35.90;55.10;;;;;;4976617;28;20026;-79
2023/09/04 13:31:25;;;;;;;1.75;0.90;;;33.50;57.30;;;;;;4994241;28;20102;-79
2023/09/04 13:33:51;;;;;;;1.15;0.90;;;32.50;59.00;;;;;;4975103;28;20030;-81
2023/09/04 13:36:17;;;;;;;2.03;1.15;;;32.00;60.40;;;;;;4974553;28;20118;-81
2023/09/04 13:38:43;;;;;;;2.67;1.15;;;31.80;61.00;;;;;;4975001;28;20027;-81
2023/09/04 13:41:09;;;;;;;1.00;1.00;;;31.80;63.30;;;;;;4974959;28;20553;-79
2023/09/04 13:43:35;;;;;;;1.58;1.42;;;32.20;60.60;;;;;;4974932;28;20044;-78
2023/09/04 13:46:01;;;;;;;1.10;0.98;;;32.40;60.70;;;;;;4974418;28;20029;-81
2023/09/04 13:48:29;;;;;;;1.30;1.20;;;32.80;61.20;;;;;;4974981;28;20030;-78
2023/09/04 13:50:55;;;;;;;2.05;1.08;;;31.80;61.80;;;;;;4974586;28;20023;-81
2023/09/04 13:53:21;;;;;;;1.17;0.90;;;32.50;61.70;;;;;;4992889;28;20022;-84